Terminal Aerodrome Forecast
Issued by NWS Jacksonville, FL

Home | Current Version | Previous Version | Text Only | Print | Product List | Glossary On
Versions: 1 2 3 4 5 6 7 8 9 10 11 12 13 14 15 16 17 18 19 20 21 22 23 24 25 26 27 28 29 30 31 32
235
FTUS42 KJAX 181126
TAFJAX
TAF
KJAX 181126Z 1812/1912 26002KT 6SM BR BKN004 OVC010
     FM181400 26004KT P6SM BKN007
     FM181600 VRB05KT P6SM BKN015 BKN100
     FM181800 06005KT P6SM SCT025 BKN100
     FM182000 09008KT P6SM SCT100
     FM190300 09003KT 6SM BR SCT004 SCT250
     FM190600 VRB02KT 2SM BR BKN003=

USA.gov is the U.S. government's official web portal to all federal, state and local government web resources and services.